Time;durP1;ratioP1;P1;durP2;ratioP2;P2;SDS_P1;SDS_P2;PMS_P1;PMS_P2;Temp;Humidity;BMP_temperature;BMP_pressure;BME280_temperature;BME280_humidity;BME280_pressure;Samples;Min_cycle;Max_cycle;Signal;HPM_P1;HPM_P2
2021/05/01 00:00:26;;;;;;;12.93;9.05;;;9.60;83.00;;;;;;5073308;28;20039;-74
2021/05/01 00:02:51;;;;;;;11.40;8.20;;;9.60;83.10;;;;;;5073179;28;20078;-75
2021/05/01 00:05:17;;;;;;;14.05;7.72;;;9.60;83.00;;;;;;5071817;28;20028;-75
2021/05/01 00:07:43;;;;;;;13.68;7.95;;;9.60;83.00;;;;;;5073432;28;20021;-75
2021/05/01 00:10:09;;;;;;;12.15;7.93;;;9.60;82.90;;;;;;5071678;28;20028;-74
2021/05/01 00:12:40;;;;;;;13.85;7.07;;;9.60;82.90;;;;;;5071664;28;20058;-75
2021/05/01 00:15:07;;;;;;;11.93;7.45;;;9.50;82.70;;;;;;5071719;28;20077;-74
2021/05/01 00:17:32;;;;;;;10.50;7.45;;;9.50;82.80;;;;;;5071613;28;20395;-74
2021/05/01 00:19:58;;;;;;;9.88;7.50;;;9.50;82.70;;;;;;5071614;28;20028;-75
2021/05/01 00:22:24;;;;;;;12.88;7.85;;;9.50;82.70;;;;;;5071369;28;20089;-75
2021/05/01 00:24:49;;;;;;;16.20;8.07;;;9.50;82.60;;;;;;5070904;28;20048;-75
2021/05/01 00:27:15;;;;;;;14.82;7.95;;;9.50;82.60;;;;;;5072794;28;20029;-74
2021/05/01 00:29:40;;;;;;;14.02;9.45;;;9.40;82.40;;;;;;5071535;28;20170;-75
2021/05/01 00:32:06;;;;;;;13.73;9.48;;;9.50;83.00;;;;;;5071423;28;20060;-75
2021/05/01 00:34:32;;;;;;;10.25;8.45;;;9.40;82.30;;;;;;5072936;28;20173;-74
2021/05/01 00:36:58;;;;;;;11.63;8.85;;;9.40;82.40;;;;;;5072534;28;20021;-74
2021/05/01 00:39:23;;;;;;;11.90;9.80;;;9.40;82.40;;;;;;5072654;28;20029;-75
2021/05/01 00:41:49;;;;;;;13.35;9.40;;;9.40;82.40;;;;;;5071386;28;20082;-74
2021/05/01 00:44:17;;;;;;;16.48;10.90;;;9.40;82.30;;;;;;5071323;28;20056;-74
2021/05/01 00:46:43;;;;;;;13.82;10.35;;;9.30;82.20;;;;;;5071360;28;20032;-74
2021/05/01 00:49:09;;;;;;;14.80;10.70;;;9.30;82.20;;;;;;5071256;28;20033;-75
2021/05/01 00:51:34;;;;;;;16.23;11.20;;;9.30;82.30;;;;;;5071273;28;20066;-74
2021/05/01 00:54:00;;;;;;;15.30;10.27;;;9.30;82.30;;;;;;5071344;28;20086;-75
2021/05/01 00:56:26;;;;;;;14.38;10.43;;;9.30;82.20;;;;;;5071222;28;20050;-75
2021/05/01 00:58:53;;;;;;;14.52;10.40;;;9.30;82.10;;;;;;5072521;28;20039;-75
2021/05/01 01:01:19;;;;;;;15.45;10.55;;;9.30;82.10;;;;;;5071162;28;20029;-74
2021/05/01 01:03:46;;;;;;;12.60;10.27;;;9.30;82.10;;;;;;5071174;28;20056;-74
2021/05/01 01:06:13;;;;;;;16.98;10.48;;;9.30;82.00;;;;;;5072523;28;20086;-74
2021/05/01 01:08:40;;;;;;;12.73;11.05;;;9.40;82.00;;;;;;5071100;28;20063;-74
2021/05/01 01:11:06;;;;;;;17.13;11.02;;;9.40;82.00;;;;;;5072403;28;20028;-74
2021/05/01 01:13:32;;;;;;;15.88;11.20;;;9.30;82.40;;;;;;5071079;28;20047;-74
2021/05/01 01:15:58;;;;;;;18.10;11.73;;;9.40;81.90;;;;;;5072733;28;20024;-74
2021/05/01 01:18:24;;;;;;;17.60;10.43;;;9.30;81.80;;;;;;5070962;28;20033;-74
2021/05/01 01:20:49;;;;;;;18.67;11.65;;;9.20;81.80;;;;;;5071004;28;20127;-74
2021/05/01 01:23:15;;;;;;;16.65;10.48;;;9.20;82.00;;;;;;5072205;28;20041;-74
2021/05/01 01:25:41;;;;;;;14.60;11.45;;;9.30;82.00;;;;;;5071029;28;20027;-74
2021/05/01 01:28:07;;;;;;;17.88;11.93;;;9.20;81.90;;;;;;5070999;28;20109;-74
2021/05/01 01:30:35;;;;;;;18.10;11.65;;;9.20;82.00;;;;;;5072284;28;20029;-74
2021/05/01 01:33:05;;;;;;;17.52;12.02;;;9.10;82.00;;;;;;5072280;28;20043;-74
2021/05/01 01:35:32;;;;;;;16.83;12.05;;;9.10;82.10;;;;;;5072574;28;20123;-75
2021/05/01 01:37:58;;;;;;;17.85;11.77;;;9.10;82.10;;;;;;5076175;28;20475;-74
2021/05/01 01:40:24;;;;;;;15.35;12.05;;;9.00;82.20;;;;;;5074569;28;20025;-74
2021/05/01 01:42:52;;;;;;;18.13;12.48;;;9.00;82.20;;;;;;5074512;28;20513;-74
2021/05/01 01:45:22;;;;;;;17.60;12.15;;;9.00;82.30;;;;;;5075877;28;20070;-74
2021/05/01 01:47:48;;;;;;;16.75;11.60;;;9.00;82.30;;;;;;5075826;28;20024;-74
2021/05/01 01:50:16;;;;;;;16.15;11.50;;;9.00;82.20;;;;;;5075801;28;20021;-74
2021/05/01 01:52:42;;;;;;;17.35;11.45;;;9.00;82.30;;;;;;5074477;28;20035;-74
2021/05/01 01:55:11;;;;;;;13.65;10.90;;;9.00;82.30;;;;;;5074405;28;20025;-74
2021/05/01 01:57:37;;;;;;;17.30;10.85;;;9.00;82.30;;;;;;5074238;28;20036;-74
2021/05/01 02:00:11;;;;;;;14.48;11.50;;;9.00;82.30;;;;;;5075611;28;20388;-74
2021/05/01 02:02:38;;;;;;;18.60;11.45;;;9.00;82.30;;;;;;5074154;28;20389;-74
2021/05/01 02:05:04;;;;;;;15.25;10.95;;;9.00;82.20;;;;;;5074183;28;20028;-74
2021/05/01 02:07:30;;;;;;;15.80;10.32;;;9.00;82.20;;;;;;5074023;28;20047;-74
2021/05/01 02:09:55;;;;;;;13.55;10.90;;;9.00;82.20;;;;;;5074202;28;20028;-74
2021/05/01 02:12:21;;;;;;;15.55;10.30;;;9.00;82.20;;;;;;5073880;28;20194;-74
2021/05/01 02:14:47;;;;;;;15.10;9.77;;;9.00;82.20;;;;;;5074033;28;20029;-74
2021/05/01 02:17:13;;;;;;;16.63;10.02;;;9.00;82.20;;;;;;5073997;28;20029;-74
2021/05/01 02:19:39;;;;;;;12.80;8.80;;;9.00;82.10;;;;;;5075443;28;20388;-74
2021/05/01 02:22:04;;;;;;;13.65;9.50;;;8.90;82.10;;;;;;5073840;28;20025;-74
2021/05/01 02:24:30;;;;;;;15.05;9.48;;;8.90;82.10;;;;;;5073832;28;20025;-75
2021/05/01 02:26:56;;;;;;;11.13;8.63;;;8.90;82.10;;;;;;5073847;28;20029;-75
2021/05/01 02:29:21;;;;;;;15.18;8.57;;;8.90;82.10;;;;;;5073859;28;20043;-75
2021/05/01 02:31:50;;;;;;;12.98;8.68;;;8.90;82.10;;;;;;5073818;28;20028;-74
2021/05/01 02:34:15;;;;;;;12.13;8.73;;;8.80;82.10;;;;;;5073673;28;20021;-74
2021/05/01 02:36:41;;;;;;;13.57;9.13;;;8.80;82.20;;;;;;5074975;28;20487;-74
2021/05/01 02:39:07;;;;;;;11.55;8.05;;;8.80;82.20;;;;;;5073617;28;20115;-74
2021/05/01 02:41:36;;;;;;;13.70;9.05;;;8.80;82.20;;;;;;5073549;28;20025;-75
2021/05/01 02:44:02;;;;;;;11.95;8.77;;;8.80;82.30;;;;;;5073430;28;20383;-75
2021/05/01 02:46:28;;;;;;;11.68;8.82;;;8.80;82.30;;;;;;5072727;28;20042;-75
2021/05/01 02:48:53;;;;;;;11.68;9.23;;;8.70;82.20;;;;;;5073417;28;20532;-75
2021/05/01 02:51:19;;;;;;;11.65;8.10;;;8.70;82.30;;;;;;5073465;28;20044;-74
2021/05/01 02:53:44;;;;;;;14.18;8.90;;;8.60;82.40;;;;;;5074613;28;20086;-75
2021/05/01 02:56:10;;;;;;;12.20;8.57;;;8.50;82.40;;;;;;5073281;28;20031;-74
2021/05/01 02:58:37;;;;;;;12.63;8.25;;;8.50;82.50;;;;;;5074976;28;20111;-74
2021/05/01 03:01:02;;;;;;;11.57;8.27;;;8.50;82.70;;;;;;5074503;28;20063;-75
2021/05/01 03:03:28;;;;;;;12.75;8.15;;;8.40;82.70;;;;;;5073030;28;20037;-74
2021/05/01 03:05:54;;;;;;;12.95;8.43;;;8.40;82.80;;;;;;5074559;28;20030;-74
2021/05/01 03:08:19;;;;;;;11.95;8.05;;;8.40;82.80;;;;;;5074453;28;20542;-75
2021/05/01 03:10:45;;;;;;;15.48;8.50;;;8.30;82.80;;;;;;5074712;28;20052;-75
2021/05/01 03:13:14;;;;;;;12.10;8.10;;;8.30;82.80;;;;;;5074164;28;20029;-75
2021/05/01 03:15:39;;;;;;;11.48;7.72;;;8.30;82.80;;;;;;5074215;28;20503;-74
2021/05/01 03:18:09;;;;;;;11.52;7.85;;;8.30;82.80;;;;;;5072911;28;20067;-75
2021/05/01 03:20:35;;;;;;;14.63;8.32;;;8.30;82.90;;;;;;5074165;28;20480;-74
2021/05/01 03:23:01;;;;;;;14.50;8.50;;;8.20;82.90;;;;;;5073932;28;20052;-74
2021/05/01 03:25:27;;;;;;;11.32;8.35;;;8.20;83.00;;;;;;5072688;28;20025;-75
2021/05/01 03:27:52;;;;;;;10.80;8.18;;;8.10;83.00;;;;;;5072624;28;20388;-75
2021/05/01 03:30:18;;;;;;;10.05;7.95;;;8.10;83.20;;;;;;5072561;28;20475;-74
2021/05/01 03:32:44;;;;;;;10.27;8.20;;;8.00;83.20;;;;;;5073826;28;20025;-74
2021/05/01 03:35:12;;;;;;;11.15;7.95;;;8.00;83.40;;;;;;5074311;28;20032;-75
2021/05/01 03:37:39;;;;;;;9.93;7.80;;;7.90;83.40;;;;;;5073733;28;20082;-74
2021/05/01 03:40:07;;;;;;;9.80;7.72;;;7.90;83.60;;;;;;5072381;28;20391;-74
2021/05/01 03:42:33;;;;;;;14.45;8.70;;;7.90;83.60;;;;;;5072183;28;20426;-75
2021/05/01 03:44:59;;;;;;;12.50;8.20;;;7.80;83.70;;;;;;5072252;28;20043;-75
2021/05/01 03:47:24;;;;;;;13.30;8.32;;;7.80;83.70;;;;;;5073513;28;20472;-74
2021/05/01 03:49:50;;;;;;;13.43;8.43;;;7.80;83.70;;;;;;5072126;28;20021;-75
2021/05/01 03:52:16;;;;;;;14.55;8.93;;;7.80;83.70;;;;;;5072086;28;20020;-74
2021/05/01 03:54:41;;;;;;;13.93;8.73;;;7.70;83.70;;;;;;5072026;28;20384;-75
2021/05/01 03:57:07;;;;;;;12.05;8.98;;;7.70;83.80;;;;;;5073310;28;20092;-74
2021/05/01 03:59:32;;;;;;;9.98;8.38;;;7.70;83.90;;;;;;5071004;28;20012;-74
2021/05/01 04:01:58;;;;;;;11.75;9.02;;;7.60;83.90;;;;;;5072414;28;20100;-74
2021/05/01 04:04:24;;;;;;;16.77;10.32;;;7.60;83.90;;;;;;5073204;28;20411;-74
2021/05/01 04:06:50;;;;;;;13.15;10.23;;;7.60;84.00;;;;;;5071785;28;20020;-74
2021/05/01 04:09:15;;;;;;;14.32;10.40;;;7.60;84.00;;;;;;5071605;28;20028;-74
2021/05/01 04:11:41;;;;;;;16.75;9.93;;;7.50;84.00;;;;;;5073002;28;20072;-74
2021/05/01 04:14:07;;;;;;;13.73;10.48;;;7.50;84.00;;;;;;5071678;28;20047;-74
2021/05/01 04:16:32;;;;;;;13.70;10.10;;;7.50;84.10;;;;;;5071525;28;20017;-75
2021/05/01 04:18:58;;;;;;;14.23;10.82;;;7.50;84.10;;;;;;5071719;28;20013;-75
2021/05/01 04:21:24;;;;;;;13.85;10.80;;;7.50;84.20;;;;;;5072673;28;20024;-75
2021/05/01 04:23:49;;;;;;;15.52;11.20;;;7.50;84.20;;;;;;5071416;28;20484;-74
2021/05/01 04:26:16;;;;;;;18.15;11.30;;;7.50;84.20;;;;;;5071581;28;20103;-74
2021/05/01 04:28:42;;;;;;;17.23;10.65;;;7.50;84.10;;;;;;5071494;28;20422;-74
2021/05/01 04:31:08;;;;;;;14.43;11.32;;;7.50;84.10;;;;;;5071568;28;20104;-74
2021/05/01 04:33:52;;;;;;;16.95;11.23;;;7.50;84.00;;;;;;5071333;28;20499;-74
2021/05/01 04:36:18;;;;;;;13.07;11.07;;;7.50;84.00;;;;;;5071201;28;20070;-75
2021/05/01 04:38:43;;;;;;;13.70;11.23;;;7.50;84.10;;;;;;5071349;28;20044;-74
2021/05/01 04:41:09;;;;;;;14.77;10.52;;;7.40;84.00;;;;;;5072619;28;20385;-74
2021/05/01 04:43:35;;;;;;;14.95;10.93;;;7.40;84.00;;;;;;5072433;28;20032;-74
2021/05/01 04:46:01;;;;;;;14.43;11.55;;;7.40;84.00;;;;;;5072875;28;20362;-74
2021/05/01 04:48:30;;;;;;;13.73;10.35;;;7.40;84.10;;;;;;5071102;28;20111;-74
2021/05/01 04:50:57;;;;;;;15.05;11.00;;;7.40;84.00;;;;;;5071252;28;20542;-74
2021/05/01 04:53:23;;;;;;;18.27;10.73;;;7.40;84.00;;;;;;5071320;28;20032;-74
2021/05/01 04:55:49;;;;;;;15.30;10.65;;;7.40;83.90;;;;;;5071469;28;20495;-74
2021/05/01 04:58:15;;;;;;;14.75;10.82;;;7.40;83.90;;;;;;5071081;28;20057;-74
2021/05/01 05:00:41;;;;;;;15.02;10.40;;;7.40;84.00;;;;;;5071185;28;20025;-74
2021/05/01 05:03:08;;;;;;;14.77;10.85;;;7.40;84.00;;;;;;5072302;28;20032;-74
2021/05/01 05:05:33;;;;;;;18.33;10.25;;;7.40;84.00;;;;;;5071026;28;20480;-74
2021/05/01 05:07:59;;;;;;;14.77;10.88;;;7.40;83.90;;;;;;5070846;28;20020;-74
2021/05/01 05:10:25;;;;;;;13.18;10.57;;;7.40;83.90;;;;;;5072815;28;20016;-74
2021/05/01 05:12:50;;;;;;;14.90;10.80;;;7.40;83.90;;;;;;5075038;28;20037;-74
2021/05/01 05:15:16;;;;;;;15.43;10.88;;;7.50;83.80;;;;;;5074959;28;20025;-75
2021/05/01 05:17:42;;;;;;;18.02;11.25;;;7.40;83.70;;;;;;5076377;28;20054;-74
2021/05/01 05:20:11;;;;;;;12.95;10.55;;;7.40;83.70;;;;;;5074963;28;20029;-74
2021/05/01 05:22:37;;;;;;;16.45;11.13;;;7.50;83.80;;;;;;5074761;28;20056;-74
2021/05/01 05:25:04;;;;;;;14.93;10.63;;;7.40;83.70;;;;;;5076221;28;20056;-75
2021/05/01 05:27:30;;;;;;;17.38;11.00;;;7.40;83.70;;;;;;5074766;28;20112;-74
2021/05/01 05:29:56;;;;;;;15.57;11.25;;;7.40;83.70;;;;;;5074748;28;20063;-74
2021/05/01 05:32:23;;;;;;;15.10;10.75;;;7.40;83.70;;;;;;5075929;28;20424;-74
2021/05/01 05:34:51;;;;;;;16.67;11.07;;;7.50;83.80;;;;;;5074602;28;20017;-75
2021/05/01 05:37:16;;;;;;;17.30;11.68;;;7.50;83.70;;;;;;5076012;28;20498;-74
2021/05/01 05:39:44;;;;;;;14.30;10.73;;;7.50;83.70;;;;;;5074431;28;20021;-75
2021/05/01 05:42:11;;;;;;;16.67;11.05;;;7.50;83.70;;;;;;5074733;28;20017;-75
2021/05/01 05:44:39;;;;;;;18.50;12.15;;;7.50;83.70;;;;;;5075779;28;20383;-74
2021/05/01 05:47:05;;;;;;;14.40;10.95;;;7.50;83.70;;;;;;5075747;28;20017;-74
2021/05/01 05:49:30;;;;;;;16.83;11.93;;;7.50;83.80;;;;;;5075663;28;20031;-74
2021/05/01 05:51:56;;;;;;;14.70;10.70;;;7.50;83.70;;;;;;5075549;28;20059;-74
2021/05/01 05:54:22;;;;;;;13.73;11.48;;;7.60;83.70;;;;;;5074271;28;20032;-74
2021/05/01 05:56:47;;;;;;;16.40;12.38;;;7.60;83.60;;;;;;5074267;28;20025;-74
2021/05/01 05:59:13;;;;;;;16.27;11.13;;;7.60;83.50;;;;;;5074207;28;20471;-74
2021/05/01 06:01:42;;;;;;;16.63;11.73;;;7.60;83.50;;;;;;5075376;28;20025;-74
2021/05/01 06:04:14;;;;;;;17.52;11.90;;;7.60;83.40;;;;;;5075287;28;20023;-74
2021/05/01 06:06:51;;;;;;;17.20;12.32;;;7.70;83.40;;;;;;5075378;28;20092;-74
2021/05/01 06:09:17;;;;;;;17.50;12.65;;;7.70;83.40;;;;;;5075132;28;20039;-74
2021/05/01 06:11:44;;;;;;;17.23;12.80;;;7.70;83.30;;;;;;5074197;28;20353;-75
2021/05/01 06:14:12;;;;;;;19.92;12.93;;;7.70;83.40;;;;;;5074420;28;20027;-75
2021/05/01 06:16:39;;;;;;;18.52;12.77;;;7.70;83.40;;;;;;5075323;28;20095;-74
2021/05/01 06:19:05;;;;;;;15.63;12.32;;;7.80;83.40;;;;;;5073707;28;20027;-74
2021/05/01 06:21:31;;;;;;;21.35;14.93;;;7.80;83.40;;;;;;5073831;28;20051;-75
2021/05/01 06:23:57;;;;;;;16.40;12.63;;;7.80;83.30;;;;;;5075438;28;20025;-74
2021/05/01 06:26:23;;;;;;;17.85;12.98;;;7.80;83.30;;;;;;5075073;28;20016;-74
2021/05/01 06:28:50;;;;;;;18.45;14.35;;;7.80;83.20;;;;;;5075041;28;20055;-74
2021/05/01 06:31:15;;;;;;;17.30;12.65;;;7.90;83.30;;;;;;5073577;28;20021;-74
2021/05/01 06:33:41;;;;;;;16.35;12.75;;;7.90;83.30;;;;;;5073482;28;20032;-74
2021/05/01 06:36:09;;;;;;;21.20;12.52;;;8.00;83.30;;;;;;5073432;28;20019;-74
2021/05/01 06:38:36;;;;;;;21.83;12.48;;;8.00;83.20;;;;;;5073425;28;20047;-74
2021/05/01 06:41:07;;;;;;;15.43;11.98;;;8.10;83.70;;;;;;5074744;28;20463;-75
2021/05/01 06:43:58;;;;;;;15.45;11.98;;;8.20;83.10;;;;;;5073258;28;20025;-74
2021/05/01 06:46:26;;;;;;;14.35;11.85;;;8.20;83.00;;;;;;5074697;28;20086;-75
2021/05/01 06:48:56;;;;;;;18.08;13.25;;;8.30;82.90;;;;;;5074931;28;20032;-75
2021/05/01 06:51:21;;;;;;;15.70;11.68;;;8.30;82.80;;;;;;5073245;28;20023;-75
2021/05/01 06:53:48;;;;;;;16.08;11.95;;;8.40;82.80;;;;;;5073345;28;20111;-74
2021/05/01 06:56:14;;;;;;;16.67;11.25;;;8.40;82.80;;;;;;5074537;28;20024;-74
2021/05/01 06:58:41;;;;;;;13.48;10.38;;;8.60;82.80;;;;;;5073190;28;20032;-74
2021/05/01 07:01:12;;;;;;;15.90;9.90;;;8.70;82.60;;;;;;5073213;28;20016;-75
2021/05/01 07:03:47;;;;;;;15.20;10.40;;;8.90;82.30;;;;;;5074284;28;20029;-74
2021/05/01 07:06:17;;;;;;;14.35;10.13;;;9.00;82.00;;;;;;5073158;28;20046;-74
2021/05/01 07:08:43;;;;;;;13.90;9.85;;;9.00;81.90;;;;;;5074300;28;20034;-75
2021/05/01 07:11:10;;;;;;;12.13;8.75;;;9.10;81.80;;;;;;5074464;28;20115;-74
2021/05/01 07:13:36;;;;;;;12.52;8.75;;;9.20;81.70;;;;;;5074198;28;20040;-74
2021/05/01 07:16:03;;;;;;;10.68;7.18;;;9.10;81.30;;;;;;5074192;28;20036;-75
2021/05/01 07:18:31;;;;;;;13.43;7.50;;;9.20;81.20;;;;;;5072737;28;20170;-74
2021/05/01 07:20:58;;;;;;;10.27;7.22;;;9.10;81.00;;;;;;5074370;28;20464;-74
2021/05/01 07:23:25;;;;;;;11.02;6.55;;;9.20;80.90;;;;;;5073966;28;20032;-74
2021/05/01 07:25:51;;;;;;;11.82;6.10;;;9.20;80.90;;;;;;5072773;28;20490;-75
2021/05/01 07:28:21;;;;;;;9.88;5.30;;;9.20;80.70;;;;;;5072629;28;20021;-74
2021/05/01 07:30:51;;;;;;;8.55;5.70;;;9.30;80.60;;;;;;5072504;28;20375;-74
2021/05/01 07:33:27;;;;;;;9.13;6.35;;;9.50;80.40;;;;;;5073670;28;20157;-74
2021/05/01 07:36:01;;;;;;;10.02;5.80;;;9.60;80.00;;;;;;5074288;28;20029;-75
2021/05/01 07:38:27;;;;;;;8.68;4.07;;;9.70;79.40;;;;;;5073794;28;20074;-75
2021/05/01 07:40:54;;;;;;;7.47;3.88;;;9.80;78.80;;;;;;5074167;28;20030;-76
2021/05/01 07:43:21;;;;;;;6.90;4.03;;;9.80;78.20;;;;;;5072557;28;20142;-74
2021/05/01 07:45:53;;;;;;;8.98;4.57;;;9.80;78.00;;;;;;5072221;28;20016;-75
2021/05/01 07:48:20;;;;;;;7.95;4.72;;;9.90;78.00;;;;;;5072214;28;20024;-75
2021/05/01 07:50:48;;;;;;;11.32;6.25;;;10.00;77.90;;;;;;5073482;28;20016;-74
2021/05/01 07:53:14;;;;;;;8.50;6.53;;;10.10;77.60;;;;;;5072413;28;20439;-75
2021/05/01 07:55:41;;;;;;;11.18;5.55;;;10.20;77.70;;;;;;5072081;28;20062;-75
2021/05/01 07:58:07;;;;;;;9.60;6.05;;;10.30;77.50;;;;;;5073397;28;20037;-75
2021/05/01 08:00:34;;;;;;;7.00;4.70;;;10.30;77.00;;;;;;5071897;28;20119;-75
2021/05/01 08:03:01;;;;;;;8.95;4.82;;;10.40;76.00;;;;;;5073528;28;20021;-75
2021/05/01 08:05:27;;;;;;;7.85;4.88;;;10.30;75.80;;;;;;5073250;28;20034;-75
2021/05/01 08:07:52;;;;;;;7.15;5.50;;;10.30;75.90;;;;;;5071836;28;20021;-75
2021/05/01 08:10:18;;;;;;;9.63;4.97;;;10.40;75.70;;;;;;5073442;28;20070;-75
2021/05/01 08:12:44;;;;;;;9.35;5.45;;;10.50;75.60;;;;;;5072709;28;20200;-75
2021/05/01 08:15:11;;;;;;;9.48;5.40;;;10.60;75.30;;;;;;5071842;28;20476;-75
2021/05/01 08:17:39;;;;;;;7.32;4.50;;;10.60;75.30;;;;;;5071812;28;20032;-75
2021/05/01 08:20:06;;;;;;;7.05;4.70;;;10.60;74.10;;;;;;5071765;28;20034;-75
2021/05/01 08:22:31;;;;;;;6.30;4.32;;;10.50;73.80;;;;;;5071624;28;20106;-75
2021/05/01 08:24:57;;;;;;;8.68;4.65;;;10.40;74.00;;;;;;5071700;28;20020;-75
2021/05/01 08:27:23;;;;;;;5.93;4.03;;;10.50;73.90;;;;;;5071753;28;20433;-75
2021/05/01 08:29:49;;;;;;;7.93;4.53;;;10.50;73.90;;;;;;5073056;28;20025;-76
2021/05/01 08:32:14;;;;;;;7.57;4.43;;;10.60;73.40;;;;;;5072984;28;20024;-75
2021/05/01 08:34:40;;;;;;;10.02;4.95;;;10.70;73.00;;;;;;5073113;28;20048;-75
2021/05/01 08:37:06;;;;;;;8.77;4.63;;;10.90;72.70;;;;;;5071750;28;20021;-75
2021/05/01 08:39:32;;;;;;;9.45;4.95;;;10.90;72.50;;;;;;5071549;28;20359;-75
2021/05/01 08:41:57;;;;;;;7.72;4.55;;;11.10;71.70;;;;;;5072901;28;20169;-75
2021/05/01 08:44:23;;;;;;;7.68;4.78;;;11.20;71.50;;;;;;5071219;28;20017;-75
2021/05/01 08:46:49;;;;;;;6.88;4.25;;;11.40;71.50;;;;;;5072837;28;20162;-74
2021/05/01 08:49:15;;;;;;;5.75;4.18;;;11.40;71.10;;;;;;5073039;28;20468;-74
2021/05/01 08:51:43;;;;;;;6.95;4.20;;;11.50;71.00;;;;;;5073127;28;20016;-74
2021/05/01 08:54:13;;;;;;;4.05;3.63;;;11.60;70.80;;;;;;5071592;28;20028;-74
2021/05/01 08:56:40;;;;;;;7.63;3.42;;;11.70;70.70;;;;;;5073374;28;20507;-74
2021/05/01 08:59:06;;;;;;;5.82;4.18;;;11.90;70.10;;;;;;5072847;28;20108;-74
2021/05/01 09:01:32;;;;;;;4.80;3.38;;;11.90;69.50;;;;;;5071560;28;20067;-75
2021/05/01 09:04:03;;;;;;;6.85;3.80;;;12.00;69.60;;;;;;5071308;28;20100;-75
2021/05/01 09:06:29;;;;;;;6.50;3.38;;;12.00;69.10;;;;;;5072687;28;20077;-73
2021/05/01 09:09:09;;;;;;;4.65;3.47;;;12.00;68.50;;;;;;5071486;28;20020;-75
2021/05/01 09:11:45;;;;;;;5.55;3.50;;;12.00;68.30;;;;;;5072532;28;20049;-74
2021/05/01 09:14:16;;;;;;;4.88;3.40;;;12.00;68.10;;;;;;5071400;28;20116;-74
2021/05/01 09:16:42;;;;;;;4.43;3.25;;;11.90;68.30;;;;;;5072662;28;20063;-74
2021/05/01 09:19:09;;;;;;;4.75;3.65;;;11.90;68.50;;;;;;5071419;28;20448;-74
2021/05/01 09:21:35;;;;;;;10.23;3.60;;;11.90;68.00;;;;;;5071385;28;20047;-74
2021/05/01 09:24:03;;;;;;;7.15;3.30;;;11.90;67.90;;;;;;5072623;28;20039;-74
2021/05/01 09:26:43;;;;;;;5.05;3.22;;;11.90;68.00;;;;;;5071211;28;20028;-74
2021/05/01 09:29:09;;;;;;;4.82;2.75;;;12.00;67.60;;;;;;5072609;28;20094;-75
2021/05/01 09:31:43;;;;;;;4.68;2.55;;;12.10;67.40;;;;;;5072428;28;20107;-75
2021/05/01 09:34:09;;;;;;;4.10;3.08;;;12.10;67.10;;;;;;5072527;28;20024;-75
2021/05/01 09:36:35;;;;;;;6.47;3.00;;;12.00;66.10;;;;;;5071098;28;20030;-74
2021/05/01 09:39:05;;;;;;;4.22;2.90;;;12.00;66.50;;;;;;5071172;28;20024;-75
2021/05/01 09:41:40;;;;;;;5.00;3.17;;;12.00;66.30;;;;;;5070960;28;20052;-75
2021/05/01 09:44:08;;;;;;;5.85;3.38;;;11.90;66.50;;;;;;5071464;28;20024;-75
2021/05/01 09:46:42;;;;;;;8.27;3.42;;;11.90;66.70;;;;;;5070984;28;20367;-74
2021/05/01 09:49:21;;;;;;;5.03;3.17;;;11.70;66.50;;;;;;5071005;28;20052;-74
2021/05/01 09:52:06;;;;;;;3.92;3.10;;;11.60;66.80;;;;;;5071061;28;20024;-74
2021/05/01 09:54:51;;;;;;;3.28;2.80;;;11.50;67.00;;;;;;5071051;28;20426;-74
2021/05/01 09:57:19;;;;;;;6.05;3.28;;;11.50;67.10;;;;;;5075207;28;20017;-74
2021/05/01 09:59:50;;;;;;;5.93;3.05;;;11.40;66.80;;;;;;5076037;28;20021;-74
2021/05/01 10:02:22;;;;;;;5.53;3.08;;;11.40;66.50;;;;;;5075948;28;20419;-74
2021/05/01 10:05:05;;;;;;;8.40;3.30;;;11.50;66.60;;;;;;5074480;28;20013;-74
2021/05/01 10:07:32;;;;;;;7.40;3.45;;;11.70;66.40;;;;;;5074494;28;20039;-74
2021/05/01 10:09:59;;;;;;;4.05;2.90;;;11.80;66.30;;;;;;5075701;28;20380;-74
2021/05/01 10:12:41;;;;;;;3.72;2.85;;;11.90;66.00;;;;;;5074224;28;20033;-74
2021/05/01 10:15:19;;;;;;;4.45;3.00;;;12.20;65.70;;;;;;5075775;28;20056;-74
2021/05/01 10:17:49;;;;;;;7.40;3.35;;;12.40;65.90;;;;;;5074368;28;20025;-74
2021/05/01 10:20:15;;;;;;;4.50;3.20;;;12.70;64.80;;;;;;5074274;28;20027;-74
2021/05/01 10:22:43;;;;;;;5.68;3.00;;;12.80;64.40;;;;;;5075479;28;20040;-74
2021/05/01 10:25:20;;;;;;;5.28;3.53;;;12.80;64.10;;;;;;5075437;28;20029;-74
2021/05/01 10:28:04;;;;;;;5.38;3.40;;;12.70;63.30;;;;;;5075406;28;20037;-74
2021/05/01 10:30:42;;;;;;;5.18;3.30;;;12.60;63.30;;;;;;5075790;28;20039;-74
2021/05/01 10:33:16;;;;;;;5.47;3.40;;;12.40;63.30;;;;;;5075482;28;20028;-73
2021/05/01 10:35:52;;;;;;;7.00;3.30;;;12.30;63.00;;;;;;5073888;28;20036;-74
2021/05/01 10:38:19;;;;;;;5.80;3.28;;;12.10;62.00;;;;;;5075111;28;20107;-74
2021/05/01 10:40:53;;;;;;;5.38;3.40;;;12.00;61.40;;;;;;5075082;28;20032;-75
2021/05/01 10:43:23;;;;;;;6.13;3.63;;;11.90;61.30;;;;;;5073734;28;20028;-74
2021/05/01 10:46:06;;;;;;;5.28;3.22;;;11.70;60.80;;;;;;5073799;28;20028;-74
2021/05/01 10:48:47;;;;;;;7.65;3.88;;;11.70;61.10;;;;;;5074906;28;20052;-75
2021/05/01 10:51:15;;;;;;;6.93;3.47;;;11.50;61.20;;;;;;5073591;28;20488;-74
2021/05/01 10:53:42;;;;;;;9.23;3.15;;;11.40;61.70;;;;;;5073567;28;20036;-75
2021/05/01 10:56:09;;;;;;;5.70;3.13;;;11.40;62.20;;;;;;5073507;28;20032;-75
2021/05/01 10:58:46;;;;;;;5.93;3.25;;;11.50;62.30;;;;;;5073411;28;20561;-75
2021/05/01 11:01:36;;;;;;;6.47;3.20;;;11.50;62.50;;;;;;5074786;28;20035;-75
2021/05/01 11:04:09;;;;;;;4.93;2.90;;;11.60;62.50;;;;;;5073648;28;20029;-75
2021/05/01 11:06:50;;;;;;;6.60;3.25;;;11.70;62.10;;;;;;5074565;28;20029;-75
2021/05/01 11:09:43;;;;;;;5.13;2.90;;;11.80;62.20;;;;;;5072487;28;20028;-74
2021/05/01 11:12:21;;;;;;;4.70;3.15;;;12.00;61.60;;;;;;5074732;28;20072;-75
2021/05/01 11:15:08;;;;;;;3.67;2.58;;;12.10;59.90;;;;;;5073205;28;20052;-74
2021/05/01 11:17:39;;;;;;;6.57;2.75;;;12.10;59.20;;;;;;5074522;28;20052;-75
2021/05/01 11:20:10;;;;;;;3.95;2.25;;;12.20;59.60;;;;;;5075071;28;20033;-74
2021/05/01 11:22:37;;;;;;;4.18;2.40;;;12.30;59.60;;;;;;5072977;28;20123;-74
2021/05/01 11:25:06;;;;;;;3.35;2.08;;;12.50;59.50;;;;;;5074551;28;20040;-74
2021/05/01 11:27:31;;;;;;;4.47;2.70;;;12.70;59.40;;;;;;5073140;28;20024;-74
2021/05/01 11:29:57;;;;;;;4.78;2.50;;;12.90;58.60;;;;;;5074822;28;20032;-74
2021/05/01 11:32:23;;;;;;;5.13;2.30;;;13.00;58.40;;;;;;5074806;28;20029;-74
2021/05/01 11:35:19;;;;;;;5.05;2.40;;;13.10;58.40;;;;;;5072975;28;20025;-74
2021/05/01 11:37:51;;;;;;;4.72;2.70;;;13.20;58.20;;;;;;5073909;28;20036;-74
2021/05/01 11:40:18;;;;;;;4.50;2.70;;;13.20;57.90;;;;;;5074082;28;20021;-74
2021/05/01 11:42:47;;;;;;;4.05;2.80;;;13.20;57.60;;;;;;5072358;28;20108;-74
2021/05/01 11:45:32;;;;;;;6.30;3.40;;;13.10;56.90;;;;;;5073840;28;20046;-74
2021/05/01 11:48:04;;;;;;;6.93;3.10;;;13.00;56.70;;;;;;5072063;28;20037;-74
2021/05/01 11:50:30;;;;;;;7.80;3.10;;;13.00;56.80;;;;;;5073655;28;20424;-74
2021/05/01 11:53:18;;;;;;;4.47;3.40;;;12.90;55.70;;;;;;5072393;28;20036;-74
2021/05/01 11:55:57;;;;;;;5.30;3.00;;;12.70;55.50;;;;;;5073629;28;20066;-73
2021/05/01 11:58:32;;;;;;;5.38;2.90;;;12.60;56.00;;;;;;5073568;28;20111;-74
2021/05/01 12:01:15;;;;;;;5.13;2.97;;;12.60;55.90;;;;;;5072120;28;20025;-74
2021/05/01 12:03:42;;;;;;;5.75;2.63;;;12.60;55.60;;;;;;5073297;28;20040;-74
2021/05/01 12:06:17;;;;;;;4.03;2.45;;;12.60;55.70;;;;;;5073558;28;20361;-74
2021/05/01 12:08:43;;;;;;;2.50;2.13;;;12.60;55.00;;;;;;5073147;28;20045;-74
2021/05/01 12:11:11;;;;;;;5.43;2.30;;;12.70;55.20;;;;;;5073054;28;20464;-73
2021/05/01 12:13:41;;;;;;;2.67;1.90;;;12.80;54.60;;;;;;5073100;28;20032;-74
2021/05/01 12:16:18;;;;;;;5.22;2.40;;;12.90;53.90;;;;;;5071802;28;20050;-74
2021/05/01 12:18:46;;;;;;;2.65;2.17;;;13.00;54.10;;;;;;5071574;28;20031;-74
2021/05/01 12:21:28;;;;;;;2.58;2.00;;;13.10;53.80;;;;;;5071134;28;20032;-74
2021/05/01 12:23:57;;;;;;;6.15;2.20;;;13.20;53.60;;;;;;5071869;28;20063;-75
2021/05/01 12:26:39;;;;;;;3.92;2.25;;;13.30;53.20;;;;;;5071925;28;20028;-74
2021/05/01 12:29:21;;;;;;;3.58;2.13;;;13.30;53.00;;;;;;5073091;28;20029;-74
2021/05/01 12:31:51;;;;;;;4.38;2.28;;;13.40;53.30;;;;;;5071882;28;20044;-74
2021/05/01 12:34:22;;;;;;;5.50;2.40;;;13.60;53.30;;;;;;5073260;28;20054;-74
2021/05/01 12:36:50;;;;;;;4.05;2.30;;;13.60;52.80;;;;;;5073150;28;20028;-74
2021/05/01 12:39:18;;;;;;;3.80;2.50;;;13.70;52.50;;;;;;5071777;28;20432;-74
2021/05/01 12:41:50;;;;;;;6.43;2.90;;;13.70;52.40;;;;;;5073063;28;20511;-75
2021/05/01 12:44:34;;;;;;;4.63;2.47;;;13.70;52.90;;;;;;5072955;28;20037;-74
2021/05/01 12:47:00;;;;;;;5.18;2.60;;;13.70;52.40;;;;;;5072845;28;20468;-74
2021/05/01 12:49:28;;;;;;;3.03;2.65;;;13.60;52.40;;;;;;5071588;28;20025;-74